CheckWX is a tool to help pilots better visualize weather data.  It is not intended as a substitute for an official pre-flight weather briefing.

07:02:07 UTC

KMEV TAF
Minden-Tahoe Airport
Minden, Nevada, USA
KMEV 241120Z 2412/2512 VRB04KT P6SM FEW250 FM242100 33008KT P6SM FEW150 SCT250 FM250500 12007KT P6SM SKC

May-24@
12:00 UTC

May-24 @ 12:00 UTC

May-24@
21:00 UTC

May-24 @ 21:00 UTC

TAF KMEV 241120Z 2412/2512 VRB04KT P6SM FEW250

Expired

Wind
  • Variable at 4 KTS
Cloud Levels
  • Few at 25,000' AGL

May-24@
21:00 UTC

May-24 @ 21:00 UTC

May-25@
05:00 UTC

May-25 @ 05:00 UTC

FM242100 33008KT P6SM FEW150 SCT250

Expired

Wind
  • 330° at 8 KTS
Cloud Levels
  • Few at 15,000' AGL
  • Scattered at 25,000' AGL

May-25@
05:00 UTC

May-25 @ 05:00 UTC

May-25@
12:00 UTC

May-25 @ 12:00 UTC

FM250500 12007KT P6SM SKC

From

From Standard forecast or significant change

Wind
  • 120° at 7 KTS
Cloud Levels
  • Clear skies